Главная страница
METAR-TAF:

METAR-TAF

Аэропорты :

Meriden-Markham Municipal Airport

Meriden, Коннектикут, США

широта: 41-30-35N, долгота: 072-49-40W, высота над уровнем моря: 31 м

Текущие метеонаблюдения

Эта сводка был подготовлена 48 минут назад, в 01:53 UTC
Ветер 15 Узел от северо-западный с порывами до 27 Узел
Температура -14°C
Влажность 51%
Давление 1022 hPa
Видимость: 16.1 км
ясное небо

METAR: KMMK 220153Z AUTO 31015G27KT 10SM CLR M14/M22 A3017 RMK AO2 PK WND 33027/0147 SLP221 I1000 T11391222

Время: 21:41 (02:41 UTC)


TAF: отсутствует

Метеонаблюдения и прогнозы для более 4000 аэропортов (сводки METAR и TAF).

Имеющиеся станции представлены на карте желтыми и красными точками.

Чтобы увидеть название станции, наведите на нее мышь.

Затем щелкните, чтобы увидеть метеонаблюдения и метеопрогнозы.

Управление картой: чтобы увеличить масштаб, щелкните зеленые кнопки с черным крестиком; чтобы уменьшить масштаб, щелкните зеленую кнопку с тире; для просмотра соседних карт щелкайте зеленые стрелки.


METAR-TAF: